createdAt,value
2019-01-29T00:01:23.130Z,100277.97
2019-01-29T00:03:57.991Z,100282.86
2019-01-29T00:06:33.015Z,100280.31
2019-01-29T00:09:12.172Z,100285.88
2019-01-29T00:11:46.993Z,100283.09
2019-01-29T00:14:21.858Z,100293.84
2019-01-29T00:16:56.695Z,100306.88
2019-01-29T00:19:31.508Z,100320.00
2019-01-29T00:22:06.881Z,100329.37
2019-01-29T00:24:41.783Z,100330.35
2019-01-29T00:27:16.584Z,100323.48
2019-01-29T00:29:51.443Z,100316.81
2019-01-29T00:32:28.276Z,100313.44
2019-01-29T00:35:03.195Z,100321.58
2019-01-29T00:37:38.047Z,100328.17
2019-01-29T00:40:14.947Z,100322.48
2019-01-29T00:42:50.868Z,100320.80
2019-01-29T00:45:25.737Z,100315.02
2019-01-29T00:48:00.641Z,100316.22
2019-01-29T00:50:35.454Z,100311.73
2019-01-29T00:53:10.347Z,100313.03
2019-01-29T00:55:45.130Z,100310.85
2019-01-29T00:58:20.002Z,100311.34
2019-01-29T01:00:54.774Z,100309.35
2019-01-29T01:03:29.539Z,100313.70
2019-01-29T01:06:04.571Z,100309.94
2019-01-29T01:08:40.537Z,100317.27
2019-01-29T01:11:15.368Z,100311.68
2019-01-29T01:13:50.211Z,100314.36
2019-01-29T01:16:24.973Z,100314.23
2019-01-29T01:18:59.740Z,100319.98
2019-01-29T01:21:34.576Z,100320.45
2019-01-29T01:24:09.571Z,100320.95
2019-01-29T01:26:44.355Z,100323.31
2019-01-29T01:29:19.347Z,100323.31
2019-01-29T01:31:54.253Z,100330.44
2019-01-29T01:34:29.113Z,100335.70
2019-01-29T01:37:03.950Z,100344.32
2019-01-29T01:39:38.823Z,100343.29
2019-01-29T01:42:13.658Z,100350.84
2019-01-29T01:44:48.513Z,100351.04
2019-01-29T01:47:25.494Z,100357.91
2019-01-29T01:50:00.310Z,100358.50
2019-01-29T01:52:35.177Z,100363.39
2019-01-29T01:55:13.490Z,100363.80
2019-01-29T01:57:48.354Z,100359.52
2019-01-29T02:00:23.996Z,100370.51
2019-01-29T02:02:58.794Z,100381.25
2019-01-29T02:05:33.853Z,100377.50
2019-01-29T02:08:08.750Z,100384.60
2019-01-29T02:10:43.590Z,100391.41
2019-01-29T02:13:18.305Z,100386.93
2019-01-29T02:15:53.134Z,100385.79
2019-01-29T02:18:27.853Z,100396.04
2019-01-29T02:21:02.681Z,100393.98
2019-01-29T02:23:38.305Z,100390.05
2019-01-29T02:26:13.157Z,100393.70
2019-01-29T02:28:47.964Z,100403.64
2019-01-29T02:31:25.442Z,100396.07
2019-01-29T02:34:02.871Z,100395.88
2019-01-29T02:36:37.682Z,100390.81
2019-01-29T02:39:12.488Z,100390.94
2019-01-29T02:41:47.364Z,100392.95
2019-01-29T02:44:22.246Z,100394.45
2019-01-29T02:46:57.051Z,100399.00
2019-01-29T02:49:31.895Z,100396.80
2019-01-29T02:52:09.140Z,100397.08
2019-01-29T02:54:46.385Z,100390.58
2019-01-29T02:57:21.684Z,100392.16
2019-01-29T02:59:56.607Z,100395.47
2019-01-29T03:02:31.531Z,100398.94
2019-01-29T03:05:08.002Z,100406.41
2019-01-29T03:07:43.970Z,100409.81
2019-01-29T03:10:26.296Z,100408.23
2019-01-29T03:13:01.228Z,100406.05
2019-01-29T03:15:35.980Z,100406.34
2019-01-29T03:18:10.800Z,100405.09
2019-01-29T03:20:45.484Z,100405.23
2019-01-29T03:23:27.362Z,100404.86
2019-01-29T03:25:56.752Z,100407.04
2019-01-29T03:28:31.772Z,100410.67
2019-01-29T03:31:06.581Z,100418.43
2019-01-29T03:33:41.408Z,100412.20
2019-01-29T03:36:16.328Z,100407.73
2019-01-29T03:38:51.182Z,100410.03
2019-01-29T03:41:26.874Z,100412.16
2019-01-29T03:44:01.768Z,100414.59
2019-01-29T03:46:36.551Z,100415.23
2019-01-29T03:49:11.369Z,100412.38
2019-01-29T03:51:46.303Z,100411.55
2019-01-29T03:54:21.244Z,100423.67
2019-01-29T03:56:56.042Z,100416.48
2019-01-29T03:59:30.868Z,100419.39
2019-01-29T04:02:07.085Z,100422.20
2019-01-29T04:04:41.931Z,100428.00
2019-01-29T04:07:16.731Z,100426.13
2019-01-29T04:09:51.555Z,100431.05
2019-01-29T04:12:26.560Z,100425.05
2019-01-29T04:15:04.860Z,100432.30
2019-01-29T04:17:41.015Z,100427.27
2019-01-29T04:20:20.506Z,100436.16
2019-01-29T04:22:59.950Z,100432.66
2019-01-29T04:25:38.000Z,100435.42
2019-01-29T04:28:15.251Z,100434.61
2019-01-29T04:30:51.884Z,100431.05
2019-01-29T04:33:26.892Z,100426.39
2019-01-29T04:36:03.681Z,100424.55
2019-01-29T04:38:38.500Z,100424.81
2019-01-29T04:41:13.340Z,100429.47
2019-01-29T04:43:48.021Z,100427.23
2019-01-29T04:46:22.863Z,100438.08
2019-01-29T04:48:57.931Z,100438.08
2019-01-29T04:51:32.751Z,100440.06
2019-01-29T04:54:07.499Z,100431.94
2019-01-29T04:56:42.322Z,100433.33
2019-01-29T04:59:17.035Z,100440.10
2019-01-29T05:01:51.953Z,100430.41
2019-01-29T05:04:26.663Z,100438.49
2019-01-29T05:07:03.487Z,100431.94
2019-01-29T05:09:38.202Z,100431.75
2019-01-29T05:12:13.017Z,100436.45
2019-01-29T05:14:47.810Z,100434.00
2019-01-29T05:17:22.689Z,100431.66
2019-01-29T05:19:57.376Z,100434.98
2019-01-29T05:22:32.292Z,100429.59
2019-01-29T05:25:10.422Z,100434.00
2019-01-29T05:27:45.437Z,100436.03
2019-01-29T05:30:24.049Z,100432.34
2019-01-29T05:32:58.990Z,100428.55
2019-01-29T05:35:33.918Z,100428.97
2019-01-29T05:38:09.003Z,100428.41
2019-01-29T05:40:43.822Z,100423.13
2019-01-29T05:43:18.692Z,100423.44
2019-01-29T05:45:54.483Z,100426.44
2019-01-29T05:48:29.299Z,100426.05
2019-01-29T05:51:04.391Z,100437.45
2019-01-29T05:53:39.201Z,100437.23
2019-01-29T05:56:14.847Z,100437.92
2019-01-29T05:58:49.752Z,100438.80
2019-01-29T06:01:24.512Z,100432.29
2019-01-29T06:04:12.776Z,100434.42
2019-01-29T06:06:48.459Z,100431.02
2019-01-29T06:09:23.273Z,100436.78
2019-01-29T06:11:57.986Z,100432.91
2019-01-29T06:14:32.927Z,100431.98
2019-01-29T06:17:07.757Z,100430.98
2019-01-29T06:19:43.064Z,100436.97
2019-01-29T06:22:18.228Z,100427.19
2019-01-29T06:24:53.224Z,100431.30
2019-01-29T06:27:27.925Z,100447.33
2019-01-29T06:30:06.203Z,100441.11
2019-01-29T06:32:40.999Z,100447.06
2019-01-29T06:35:17.695Z,100447.16
2019-01-29T06:37:52.579Z,100449.04
2019-01-29T06:40:28.815Z,100456.89
2019-01-29T06:43:03.719Z,100452.09
2019-01-29T06:45:38.701Z,100450.75
2019-01-29T06:48:13.473Z,100458.40
2019-01-29T06:50:48.324Z,100453.23
2019-01-29T06:53:23.413Z,100454.37
2019-01-29T06:55:58.251Z,100462.66
2019-01-29T06:58:33.363Z,100459.40
2019-01-29T07:01:08.345Z,100460.77
2019-01-29T07:03:43.141Z,100465.67
2019-01-29T07:06:17.961Z,100461.27
2019-01-29T07:08:53.151Z,100470.09
2019-01-29T07:11:27.905Z,100477.42
2019-01-29T07:14:02.819Z,100472.52
2019-01-29T07:16:54.231Z,100474.68
2019-01-29T07:19:37.748Z,100474.68
2019-01-29T07:22:12.579Z,100472.09
2019-01-29T07:24:47.394Z,100480.07
2019-01-29T07:27:22.228Z,100473.09
2019-01-29T07:29:57.072Z,100472.57
2019-01-29T07:32:31.916Z,100474.02
2019-01-29T07:35:07.546Z,100478.57
2019-01-29T07:37:43.395Z,100477.44
2019-01-29T07:40:18.394Z,100475.15
2019-01-29T07:42:53.419Z,100477.00
2019-01-29T07:45:29.273Z,100475.15
2019-01-29T07:48:04.298Z,100480.40
2019-01-29T07:50:40.135Z,100476.16
2019-01-29T07:53:14.991Z,100475.89
2019-01-29T07:55:49.983Z,100484.69
2019-01-29T07:58:24.889Z,100478.84
2019-01-29T08:00:59.883Z,100479.77
2019-01-29T08:03:38.323Z,100478.47
2019-01-29T08:06:12.663Z,100484.81
2019-01-29T08:08:47.735Z,100479.50
2019-01-29T08:11:22.770Z,100483.02
2019-01-29T08:13:57.649Z,100478.63
2019-01-29T08:16:32.606Z,100488.09
2019-01-29T08:19:09.757Z,100476.78
2019-01-29T08:21:44.527Z,100482.78
2019-01-29T08:24:19.581Z,100468.19
2019-01-29T08:26:55.598Z,100481.39
2019-01-29T08:29:30.803Z,100480.30
2019-01-29T08:32:06.119Z,100481.47
2019-01-29T08:34:42.465Z,100475.29
2019-01-29T08:37:17.381Z,100478.81
2019-01-29T08:39:52.286Z,100471.53
2019-01-29T08:42:28.495Z,100478.70
2019-01-29T08:45:04.387Z,100484.19
2019-01-29T08:47:39.447Z,100484.21
2019-01-29T08:50:19.987Z,100485.54
2019-01-29T08:52:55.033Z,100483.89
2019-01-29T08:55:30.041Z,100484.86
2019-01-29T08:58:05.831Z,100482.08
2019-01-29T09:00:40.856Z,100486.33
2019-01-29T09:03:15.856Z,100476.94
2019-01-29T09:05:50.863Z,100476.88
2019-01-29T09:08:25.877Z,100481.28
2019-01-29T09:11:00.787Z,100480.34
2019-01-29T09:13:35.820Z,100479.52
2019-01-29T09:16:10.689Z,100487.44
2019-01-29T09:18:45.635Z,100494.43
2019-01-29T09:21:20.478Z,100498.41
2019-01-29T09:23:55.271Z,100489.66
2019-01-29T09:26:30.279Z,100494.52
2019-01-29T09:29:05.102Z,100487.30
2019-01-29T09:31:39.945Z,100482.94
2019-01-29T09:34:17.242Z,100480.45
2019-01-29T09:36:53.087Z,100480.95
2019-01-29T09:39:28.810Z,100480.84
2019-01-29T09:42:04.584Z,100475.95
2019-01-29T09:44:39.409Z,100479.97
2019-01-29T09:47:14.467Z,100482.75
2019-01-29T09:49:49.327Z,100484.55
2019-01-29T09:52:24.255Z,100481.17
2019-01-29T09:54:59.065Z,100481.19
2019-01-29T09:57:33.905Z,100477.69
2019-01-29T10:00:16.355Z,100476.58
2019-01-29T10:02:51.746Z,100477.09
2019-01-29T10:05:27.175Z,100472.41
2019-01-29T10:08:02.025Z,100482.28
2019-01-29T10:10:36.879Z,100478.38
2019-01-29T10:13:13.183Z,100474.59
2019-01-29T10:15:48.015Z,100477.30
2019-01-29T10:18:22.857Z,100476.38
2019-01-29T10:20:57.652Z,100469.44
2019-01-29T10:23:32.575Z,100468.70
2019-01-29T10:26:07.384Z,100470.50
2019-01-29T10:28:43.413Z,100472.19
2019-01-29T10:31:18.211Z,100468.89
2019-01-29T10:33:53.049Z,100467.35
2019-01-29T10:36:27.770Z,100470.30
2019-01-29T10:39:05.109Z,100465.91
2019-01-29T10:41:40.045Z,100464.25
2019-01-29T10:44:14.808Z,100453.17
2019-01-29T10:46:50.655Z,100452.50
2019-01-29T10:49:25.492Z,100458.33
2019-01-29T10:52:00.337Z,100449.06
2019-01-29T10:54:35.271Z,100446.31
2019-01-29T10:57:10.268Z,100452.75
2019-01-29T10:59:45.034Z,100435.95
2019-01-29T11:02:19.867Z,100431.95
2019-01-29T11:04:54.781Z,100433.13
2019-01-29T11:07:29.620Z,100423.55
2019-01-29T11:10:04.812Z,100421.73
2019-01-29T11:12:39.894Z,100413.82
2019-01-29T11:15:23.311Z,100413.58
2019-01-29T11:17:58.259Z,100411.88
2019-01-29T11:20:33.341Z,100404.77
2019-01-29T11:23:11.302Z,100402.47
2019-01-29T11:25:46.146Z,100399.09
2019-01-29T11:28:20.971Z,100401.84
2019-01-29T11:30:55.827Z,100394.98
2019-01-29T11:33:30.675Z,100394.88
2019-01-29T11:36:05.622Z,100393.11
2019-01-29T11:38:40.482Z,100388.25
2019-01-29T11:41:15.256Z,100385.08
2019-01-29T11:43:50.125Z,100380.95
2019-01-29T11:46:25.121Z,100383.34
2019-01-29T11:49:00.154Z,100382.63
2019-01-29T11:51:35.111Z,100385.63
2019-01-29T11:54:10.098Z,100376.03
2019-01-29T11:56:44.946Z,100385.08
2019-01-29T11:59:19.913Z,100374.44
2019-01-29T12:01:54.783Z,100376.22
2019-01-29T12:04:29.923Z,100386.13
2019-01-29T12:07:04.806Z,100365.95
2019-01-29T12:09:39.637Z,100369.27
2019-01-29T12:12:14.569Z,100364.94
2019-01-29T12:14:49.489Z,100368.20
2019-01-29T12:17:25.419Z,100363.17
2019-01-29T12:20:00.363Z,100360.93
2019-01-29T12:22:35.359Z,100358.41
2019-01-29T12:25:11.620Z,100357.94
2019-01-29T12:27:46.546Z,100346.67
2019-01-29T12:30:22.029Z,100346.45
2019-01-29T12:32:57.221Z,100344.87
2019-01-29T12:35:32.044Z,100344.73
2019-01-29T12:38:09.601Z,100349.76
2019-01-29T12:40:46.659Z,100341.81
2019-01-29T12:43:21.500Z,100344.65
2019-01-29T12:45:56.301Z,100338.95
2019-01-29T12:48:33.571Z,100333.02
2019-01-29T12:51:20.420Z,100328.87
2019-01-29T12:53:57.689Z,100329.39
2019-01-29T12:56:36.099Z,100325.55
2019-01-29T12:59:12.230Z,100334.35
2019-01-29T13:01:47.554Z,100322.72
2019-01-29T13:04:22.510Z,100323.55
2019-01-29T13:06:57.435Z,100321.69
2019-01-29T13:09:32.382Z,100316.94
2019-01-29T13:12:07.563Z,100323.77
2019-01-29T13:14:42.573Z,100318.13
2019-01-29T13:17:17.290Z,100323.84
2019-01-29T13:19:52.130Z,100315.83
2019-01-29T13:22:26.948Z,100316.67
2019-01-29T13:25:01.780Z,100310.13
2019-01-29T13:27:36.674Z,100307.73
2019-01-29T13:30:23.624Z,100314.81
2019-01-29T13:32:58.500Z,100309.62
2019-01-29T13:35:35.320Z,100306.30
2019-01-29T13:38:11.014Z,100306.07
2019-01-29T13:40:45.850Z,100307.30
2019-01-29T13:43:20.654Z,100297.33
2019-01-29T13:45:56.684Z,100298.20
2019-01-29T13:48:33.334Z,100295.61
2019-01-29T13:51:08.279Z,100294.97
2019-01-29T13:53:43.085Z,100285.11
2019-01-29T13:56:17.949Z,100289.79
2019-01-29T13:58:52.796Z,100288.03
2019-01-29T14:01:27.646Z,100286.39
2019-01-29T14:04:06.232Z,100276.23
2019-01-29T14:06:39.078Z,100278.71
2019-01-29T14:09:14.224Z,100283.34
2019-01-29T14:11:50.626Z,100279.20
2019-01-29T14:14:26.346Z,100281.74
2019-01-29T14:17:01.222Z,100282.68
2019-01-29T14:19:36.025Z,100275.03
2019-01-29T14:22:10.868Z,100270.00
2019-01-29T14:24:45.661Z,100268.11
2019-01-29T14:27:20.534Z,100276.54
2019-01-29T14:29:55.430Z,100267.95
2019-01-29T14:32:30.256Z,100263.25
2019-01-29T14:35:05.525Z,100257.47
2019-01-29T14:38:41.928Z,100259.30
2019-01-29T14:41:19.768Z,100257.29
2019-01-29T14:43:58.130Z,100258.09
2019-01-29T14:46:33.810Z,100253.99
2019-01-29T14:49:09.532Z,100251.97
2019-01-29T14:51:44.354Z,100248.80
2019-01-29T14:54:20.127Z,100252.02
2019-01-29T14:56:57.157Z,100242.92
2019-01-29T14:59:32.106Z,100234.80
2019-01-29T15:02:06.827Z,100237.23
2019-01-29T15:04:41.759Z,100235.11
2019-01-29T15:07:16.658Z,100235.50
2019-01-29T15:09:56.217Z,100238.97
2019-01-29T15:12:31.250Z,100233.77
2019-01-29T15:15:08.598Z,100234.98
2019-01-29T15:17:56.154Z,100238.31
2019-01-29T15:20:31.111Z,100225.70
2019-01-29T15:23:06.061Z,100226.97
2019-01-29T15:25:40.936Z,100227.75
2019-01-29T15:28:15.750Z,100223.69
2019-01-29T15:30:52.866Z,100220.92
2019-01-29T15:33:27.548Z,100228.62
2019-01-29T15:36:02.413Z,100215.05
2019-01-29T15:38:37.200Z,100215.38
2019-01-29T15:41:12.088Z,100219.61
2019-01-29T15:43:46.894Z,100219.38
2019-01-29T15:46:21.758Z,100213.89
2019-01-29T15:48:56.578Z,100217.81
2019-01-29T15:51:31.464Z,100218.05
2019-01-29T15:54:06.981Z,100219.79
2019-01-29T15:56:41.838Z,100221.77
2019-01-29T15:59:16.586Z,100217.91
2019-01-29T16:01:51.525Z,100214.23
2019-01-29T16:04:26.347Z,100216.20
2019-01-29T16:07:01.184Z,100216.53
2019-01-29T16:09:36.198Z,100212.47
2019-01-29T16:12:12.197Z,100205.77
2019-01-29T16:14:47.060Z,100202.59
2019-01-29T16:17:21.939Z,100209.28
2019-01-29T16:19:56.774Z,100209.09
2019-01-29T16:22:34.153Z,100201.00
2019-01-29T16:25:11.229Z,100206.77
2019-01-29T16:27:46.087Z,100203.94
2019-01-29T16:30:24.592Z,100197.70
2019-01-29T16:32:59.466Z,100204.70
2019-01-29T16:35:34.409Z,100201.48
2019-01-29T16:38:09.645Z,100200.50
2019-01-29T16:40:46.297Z,100201.92
2019-01-29T16:43:21.248Z,100198.97
2019-01-29T16:45:56.074Z,100191.02
2019-01-29T16:48:30.975Z,100192.51
2019-01-29T16:51:06.082Z,100196.91
2019-01-29T16:53:46.263Z,100194.13
2019-01-29T16:56:21.210Z,100195.33
2019-01-29T16:58:56.122Z,100184.88
2019-01-29T17:01:34.213Z,100183.03
2019-01-29T17:04:10.694Z,100191.38
2019-01-29T17:06:45.658Z,100186.91
2019-01-29T17:09:20.622Z,100181.23
2019-01-29T17:11:55.566Z,100178.96
2019-01-29T17:14:30.468Z,100178.69
2019-01-29T17:17:05.326Z,100171.91
2019-01-29T17:19:40.180Z,100174.10
2019-01-29T17:22:14.988Z,100177.00
2019-01-29T17:24:49.867Z,100174.80
2019-01-29T17:27:24.615Z,100176.03
2019-01-29T17:29:59.506Z,100169.25
2019-01-29T17:32:36.240Z,100165.87
2019-01-29T17:35:11.238Z,100165.48
2019-01-29T17:37:46.039Z,100169.16
2019-01-29T17:40:21.385Z,100163.57
2019-01-29T17:42:56.420Z,100166.34
2019-01-29T17:45:34.661Z,100158.70
2019-01-29T17:48:09.578Z,100158.72
2019-01-29T17:50:45.515Z,100156.02
2019-01-29T17:53:20.590Z,100150.66
2019-01-29T17:55:55.493Z,100152.73
2019-01-29T17:58:30.283Z,100150.95
2019-01-29T18:01:05.492Z,100147.09
2019-01-29T18:03:40.426Z,100146.77
2019-01-29T18:06:15.211Z,100146.77
2019-01-29T18:08:50.584Z,100144.91
2019-01-29T18:11:25.350Z,100138.81
2019-01-29T18:14:01.774Z,100138.83
2019-01-29T18:16:36.768Z,100135.16
2019-01-29T18:19:12.340Z,100133.28
2019-01-29T18:21:56.727Z,100137.05
2019-01-29T18:24:25.456Z,100136.44
2019-01-29T18:27:03.345Z,100132.95
2019-01-29T18:29:38.179Z,100131.98
2019-01-29T18:32:13.378Z,100135.75
2019-01-29T18:34:48.372Z,100131.40
2019-01-29T18:37:23.297Z,100129.20
2019-01-29T18:39:58.117Z,100126.42
2019-01-29T18:42:35.765Z,100129.20
2019-01-29T18:45:12.666Z,100129.39
2019-01-29T18:47:47.812Z,100127.89
2019-01-29T18:50:22.915Z,100117.48
2019-01-29T18:52:57.933Z,100117.28
2019-01-29T18:55:32.767Z,100112.11
2019-01-29T18:58:11.917Z,100110.52
2019-01-29T19:00:54.043Z,100109.72
2019-01-29T19:03:20.980Z,100113.81
2019-01-29T19:05:55.960Z,100114.20
2019-01-29T19:08:30.871Z,100109.72
2019-01-29T19:11:07.758Z,100108.83
2019-01-29T19:13:42.575Z,100102.06
2019-01-29T19:16:17.574Z,100101.28
2019-01-29T19:18:52.562Z,100106.93
2019-01-29T19:21:27.298Z,100103.84
2019-01-29T19:24:02.161Z,100104.16
2019-01-29T19:26:37.019Z,100100.07
2019-01-29T19:29:11.982Z,100101.67
2019-01-29T19:31:46.710Z,100099.77
2019-01-29T19:34:21.785Z,100092.91
2019-01-29T19:36:56.612Z,100094.11
2019-01-29T19:39:31.561Z,100096.88
2019-01-29T19:42:06.550Z,100095.97
2019-01-29T19:44:41.401Z,100098.27
2019-01-29T19:47:16.318Z,100097.98
2019-01-29T19:49:51.402Z,100097.38
2019-01-29T19:52:26.946Z,100094.40
2019-01-29T19:55:01.922Z,100090.81
2019-01-29T19:57:37.773Z,100091.81
2019-01-29T20:00:26.411Z,100091.10
2019-01-29T20:03:01.294Z,100095.78
2019-01-29T20:05:36.232Z,100092.80
2019-01-29T20:08:11.205Z,100093.30
2019-01-29T20:10:46.025Z,100093.28
2019-01-29T20:13:20.893Z,100092.90
2019-01-29T20:15:55.797Z,100086.27
2019-01-29T20:18:30.641Z,100086.94
2019-01-29T20:21:05.542Z,100086.06
2019-01-29T20:23:41.382Z,100087.25
2019-01-29T20:26:17.308Z,100081.20
2019-01-29T20:28:52.416Z,100078.45
2019-01-29T20:31:27.326Z,100076.35
2019-01-29T20:34:04.684Z,100077.16
2019-01-29T20:36:40.441Z,100076.55
2019-01-29T20:39:15.274Z,100080.61
2019-01-29T20:41:51.882Z,100084.28
2019-01-29T20:44:26.801Z,100079.62
2019-01-29T20:47:01.829Z,100079.72
2019-01-29T20:49:36.726Z,100084.89
2019-01-29T20:52:11.693Z,100080.72
2019-01-29T20:54:46.625Z,100074.37
2019-01-29T20:57:21.507Z,100084.50
2019-01-29T20:59:56.360Z,100085.00
2019-01-29T21:02:31.217Z,100076.45
2019-01-29T21:05:09.527Z,100080.13
2019-01-29T21:07:44.723Z,100076.86
2019-01-29T21:10:21.400Z,100080.13
2019-01-29T21:12:56.219Z,100078.42
2019-01-29T21:15:38.142Z,100066.71
2019-01-29T21:18:07.701Z,100075.64
2019-01-29T21:20:42.549Z,100077.03
2019-01-29T21:23:17.421Z,100066.98
2019-01-29T21:25:52.244Z,100072.16
2019-01-29T21:28:27.107Z,100073.44
2019-01-29T21:31:01.933Z,100070.66
2019-01-29T21:33:36.729Z,100067.19
2019-01-29T21:36:11.629Z,100064.70
2019-01-29T21:38:46.561Z,100057.16
2019-01-29T21:41:21.521Z,100061.72
2019-01-29T21:43:56.419Z,100047.75
2019-01-29T21:46:31.267Z,100042.40
2019-01-29T21:49:06.195Z,100046.34
2019-01-29T21:51:41.019Z,100045.05
2019-01-29T21:54:15.890Z,100037.23
2019-01-29T21:56:50.739Z,100036.44
2019-01-29T21:59:26.473Z,100038.03
2019-01-29T22:02:01.329Z,100034.23
2019-01-29T22:04:36.204Z,100033.47
2019-01-29T22:07:13.972Z,100030.69
2019-01-29T22:09:48.879Z,100029.30
2019-01-29T22:12:23.697Z,100018.77
2019-01-29T22:14:58.543Z,100014.90
2019-01-29T22:17:33.644Z,100013.49
2019-01-29T22:20:11.827Z,100009.43
2019-01-29T22:22:46.621Z,99997.33
2019-01-29T22:25:21.583Z,100000.79
2019-01-29T22:27:57.280Z,99987.38
2019-01-29T22:30:34.990Z,99981.73
2019-01-29T22:33:10.087Z,99978.06
2019-01-29T22:35:46.815Z,99981.23
2019-01-29T22:38:21.633Z,99976.38
2019-01-29T22:40:56.549Z,99975.67
2019-01-29T22:43:31.353Z,99971.72
2019-01-29T22:46:06.227Z,99972.81
2019-01-29T22:48:41.025Z,99967.84
2019-01-29T22:51:15.863Z,99976.98
2019-01-29T22:53:50.678Z,99973.91
2019-01-29T22:56:25.539Z,99970.14
2019-01-29T22:59:00.239Z,99966.24
2019-01-29T23:01:43.724Z,99965.37
2019-01-29T23:04:31.093Z,99956.14
2019-01-29T23:07:20.081Z,99957.82
2019-01-29T23:09:54.797Z,99962.67
2019-01-29T23:12:29.582Z,99952.35
2019-01-29T23:15:07.615Z,99954.45
2019-01-29T23:17:43.513Z,99949.89
2019-01-29T23:20:19.050Z,99952.28
2019-01-29T23:22:54.018Z,99949.89
2019-01-29T23:25:28.907Z,99949.50
2019-01-29T23:28:03.858Z,99944.81
2019-01-29T23:30:39.751Z,99947.00
2019-01-29T23:33:14.567Z,99945.72
2019-01-29T23:35:49.349Z,99941.25
2019-01-29T23:38:24.223Z,99945.52
2019-01-29T23:40:58.926Z,99937.49
2019-01-29T23:43:33.777Z,99937.67
2019-01-29T23:46:08.473Z,99937.17
2019-01-29T23:48:43.382Z,99928.44
2019-01-29T23:51:18.207Z,99928.05
2019-01-29T23:53:53.051Z,99923.68
2019-01-29T23:56:27.851Z,99924.30
2019-01-29T23:59:03.611Z,99914.38
